Time;durP1;ratioP1;P1;durP2;ratioP2;P2;SDS_P1;SDS_P2;PMS_P1;PMS_P2;Temp;Humidity;BMP_temperature;BMP_pressure;BME280_temperature;BME280_humidity;BME280_pressure;Samples;Min_cycle;Max_cycle;Signal;HPM_P1;HPM_P2
2023/01/19 00:01:14;;;;;;;;;;;;;;;0.57;100.00;98094.09;5005203;28;19956;-80
2023/01/19 00:03:39;;;;;;;;;;;;;;;0.62;100.00;98095.38;5010234;28;19937;-81
2023/01/19 00:06:07;;;;;;;;;;;;;;;0.66;100.00;98096.78;5007372;28;20020;-81
2023/01/19 00:08:34;;;;;;;;;;;;;;;0.70;100.00;98092.22;5006184;28;19921;-81
2023/01/19 00:10:59;;;;;;;;;;;;;;;0.71;100.00;98083.47;5008631;28;19974;-83
2023/01/19 00:13:25;;;;;;;;;;;;;;;0.76;100.00;98076.16;5013746;28;19921;-80
2023/01/19 00:15:51;;;;;;;;;;;;;;;0.82;100.00;98092.09;5008907;28;19925;-82
2023/01/19 00:18:16;;;;;;;;;;;;;;;0.83;100.00;98092.91;5042071;28;19971;-81
2023/01/19 00:20:44;;;;;;;;;;;;;;;0.86;100.00;98092.69;5050584;28;19990;-85
2023/01/19 00:23:09;;;;;;;;;;;;;;;0.89;100.00;98092.44;5045362;28;19921;-82
2023/01/19 00:25:41;;;;;;;;;;;;;;;0.92;100.00;98092.22;5039392;28;19920;-82
2023/01/19 00:28:10;;;;;;;;;;;;;;;0.94;100.00;98095.53;5050531;28;19991;-80
2023/01/19 00:30:36;;;;;;;;;;;;;;;0.91;100.00;98108.75;5052615;28;19936;-83
2023/01/19 00:33:02;;;;;;;;;;;;;;;0.91;100.00;98090.56;5059630;28;19929;-84
2023/01/19 00:35:27;;;;;;;;;;;;;;;0.93;100.00;98088.69;5027569;28;20063;-85
2023/01/19 00:37:52;;;;;;;;;;;;;;;0.93;100.00;98083.50;5058406;28;19928;-84
2023/01/19 00:40:18;;;;;;;;;;;;;;;0.96;100.00;98083.25;5054647;28;19952;-83
2023/01/19 00:42:44;;;;;;;;;;;;;;;0.99;100.00;98089.97;5058590;28;19920;-84
2023/01/19 00:45:10;;;;;;;;;;;;;;;1.01;100.00;98081.09;5053889;28;19947;-83
2023/01/19 00:47:35;;;;;;;;;;;;;;;1.02;100.00;98085.34;5054912;28;19943;-83
2023/01/19 00:50:01;;;;;;;;;;;;;;;1.06;100.00;98084.16;5055109;28;19925;-83
2023/01/19 00:52:27;;;;;;;;;;;;;;;1.09;100.00;98088.31;5046954;28;19925;-82
2023/01/19 00:54:52;;;;;;;;;;;;;;;1.08;100.00;98084.88;5053307;28;19921;-82
2023/01/19 00:57:18;;;;;;;;;;;;;;;1.08;100.00;98084.88;5033644;28;19920;-80
2023/01/19 00:59:43;;;;;;;;;;;;;;;1.05;100.00;98082.53;5051483;28;19994;-82
2023/01/19 01:02:10;;;;;;;;;;;;;;;1.04;100.00;98083.47;5054977;28;19927;-82
2023/01/19 01:04:35;;;;;;;;;;;;;;;0.95;100.00;98086.78;5052175;28;20014;-81
2023/01/19 01:07:01;;;;;;;;;;;;;;;0.96;100.00;98083.25;5053088;28;19940;-81
2023/01/19 01:09:26;;;;;;;;;;;;;;;0.96;100.00;98093.63;5052025;28;19921;-82
2023/01/19 01:11:52;;;;;;;;;;;;;;;0.99;100.00;98098.59;5055562;28;19921;-81
2023/01/19 01:14:18;;;;;;;;;;;;;;;1.02;100.00;98106.16;5052445;28;19925;-80
2023/01/19 01:16:43;;;;;;;;;;;;;;;1.03;100.00;98102.59;5047500;28;19921;-82
2023/01/19 01:19:09;;;;;;;;;;;;;;;1.07;100.00;98103.19;5054951;28;19928;-82
2023/01/19 01:21:36;;;;;;;;;;;;;;;1.05;100.00;98098.13;5057436;28;19928;-80
2023/01/19 01:24:02;;;;;;;;;;;;;;;1.07;100.00;98101.41;5068660;28;19929;-82
2023/01/19 01:26:27;;;;;;;;;;;;;;;1.08;100.00;98097.88;5058249;28;20051;-81
2023/01/19 01:28:52;;;;;;;;;;;;;;;1.08;100.00;98097.88;5057075;28;19921;-80
2023/01/19 01:31:18;;;;;;;;;;;;;;;1.02;100.00;98087.97;5052980;28;20044;-82
2023/01/19 01:33:43;;;;;;;;;;;;;;;1.06;100.00;98094.56;5054737;28;19935;-82
2023/01/19 01:36:10;;;;;;;;;;;;;;;1.08;100.00;98082.28;5052452;28;19917;-81
2023/01/19 01:38:36;;;;;;;;;;;;;;;1.01;100.00;98086.31;5050643;28;19921;-84
2023/01/19 01:41:01;;;;;;;;;;;;;;;0.79;100.00;98087.13;5057681;28;19967;-85
2023/01/19 01:43:40;;;;;;;;;;;;;;;0.72;100.00;98090.31;5057790;28;19921;-83
2023/01/19 01:46:06;;;;;;;;;;;;;;;0.67;100.00;98092.44;5048097;28;19921;-81
2023/01/19 01:48:32;;;;;;;;;;;;;;;0.57;100.00;98086.31;5054342;28;19920;-80
2023/01/19 01:53:46;;;;;;;;;;;;;;;0.56;100.00;98089.84;5044773;28;20377;-80
2023/01/19 01:56:14;;;;;;;;;;;;;;;0.62;100.00;98099.75;5050847;28;19925;-81
2023/01/19 01:58:39;;;;;;;;;;;;;;;0.66;100.00;98101.16;5049016;28;20400;-81
2023/01/19 02:03:51;;;;;;;;;;;;;;;0.68;100.00;98092.31;5054669;28;19947;-84
2023/01/19 02:06:16;;;;;;;;;;;;;;;0.72;100.00;98100.69;5057838;28;20376;-82
2023/01/19 02:14:36;;;;;;;;;;;;;;;0.67;100.00;98102.81;5047688;28;19921;-86
2023/01/19 02:17:02;;;;;;;;;;;;;;;0.72;100.00;98106.72;5045725;28;19925;-86
2023/01/19 02:19:31;;;;;;;;;;;;;;;0.75;100.00;98084.91;5037799;28;19974;-85
2023/01/19 02:22:08;;;;;;;;;;;;;;;0.75;100.00;98105.66;5048585;28;20051;-84
2023/01/19 02:24:34;;;;;;;;;;;;;;;0.78;100.00;98110.63;5053204;28;19921;-83
2023/01/19 02:27:00;;;;;;;;;;;;;;;0.82;100.00;98106.88;5049297;28;19968;-83
2023/01/19 02:29:27;;;;;;;;;;;;;;;0.84;100.00;98102.34;5051666;28;19921;-85
2023/01/19 02:31:54;;;;;;;;;;;;;;;0.84;100.00;98094.56;5046459;28;20373;-84
2023/01/19 02:34:20;;;;;;;;;;;;;;;0.84;100.00;98104.97;5036954;28;20698;-85
2023/01/19 02:36:53;;;;;;;;;;;;;;;0.84;100.00;98099.75;5050496;28;19961;-84
2023/01/19 02:39:24;;;;;;;;;;;;;;;0.85;100.00;98101.41;5056185;28;19925;-83
2023/01/19 02:41:58;;;;;;;;;;;;;;;0.83;100.00;98098.09;5056966;28;19921;-84
2023/01/19 02:44:24;;;;;;;;;;;;;;;0.83;100.00;98092.91;5050038;28;19928;-84
2023/01/19 02:46:52;;;;;;;;;;;;;;;0.83;100.00;98088.53;5054150;28;20388;-84
2023/01/19 02:49:17;;;;;;;;;;;;;;;0.84;100.00;98084.19;5048734;28;20369;-81
2023/01/19 02:51:43;;;;;;;;;;;;;;;0.81;100.00;98079.25;5050939;28;19993;-83
2023/01/19 02:54:17;;;;;;;;;;;;;;;0.80;100.00;98094.00;5051361;28;19921;-82
2023/01/19 02:56:47;;;;;;;;;;;;;;;0.82;100.00;98096.47;5046784;28;19921;-83
2023/01/19 02:59:29;;;;;;;;;;;;;;;0.82;100.00;98097.28;5039061;28;19921;-86
2023/01/19 03:02:03;;;;;;;;;;;;;;;0.85;100.00;98095.41;5052711;28;19921;-84
2023/01/19 03:04:43;;;;;;;;;;;;;;;0.86;100.00;98099.66;5053325;28;19920;-83
2023/01/19 03:07:09;;;;;;;;;;;;;;;0.87;100.00;98099.53;5049331;28;19921;-85
2023/01/19 03:09:42;;;;;;;;;;;;;;;0.80;100.00;98098.34;5053960;28;19927;-87
2023/01/19 03:12:28;;;;;;;;;;;;;;;0.74;100.00;98098.81;5047404;28;20437;-85
2023/01/19 03:14:56;;;;;;;;;;;;;;;0.76;100.00;98091.75;5036790;28;19927;-85
2023/01/19 03:17:22;;;;;;;;;;;;;;;0.76;100.00;98089.97;5050610;28;20713;-82
2023/01/19 03:19:49;;;;;;;;;;;;;;;0.77;100.00;98094.22;5032878;28;19939;-83
2023/01/19 03:22:27;;;;;;;;;;;;;;;0.76;100.00;98091.75;5046854;28;19921;-83
2023/01/19 03:24:54;;;;;;;;;;;;;;;0.81;100.00;98097.41;5049260;28;19972;-83
2023/01/19 03:27:24;;;;;;;;;;;;;;;0.81;100.00;98100.00;5052822;28;20735;-82
2023/01/19 03:29:52;;;;;;;;;;;;;;;0.83;100.00;98105.91;5042722;28;19921;-82
2023/01/19 03:32:20;;;;;;;;;;;;;;;0.84;100.00;98110.16;5033642;28;19925;-81
2023/01/19 03:34:48;;;;;;;;;;;;;;;0.86;100.00;98117.84;5031461;28;20262;-79
2023/01/19 03:37:14;;;;;;;;;;;;;;;0.88;100.00;98111.59;5049357;28;19964;-81
2023/01/19 03:39:40;;;;;;;;;;;;;;;0.89;100.00;98131.41;5055618;28;19947;-82
2023/01/19 03:42:08;;;;;;;;;;;;;;;0.92;100.00;98133.78;5049544;28;19924;-82
2023/01/19 03:44:35;;;;;;;;;;;;;;;0.93;100.00;98127.66;5042972;28;19921;-82
2023/01/19 03:47:02;;;;;;;;;;;;;;;0.93;100.00;98135.44;5050295;28;20454;-82
2023/01/19 03:49:33;;;;;;;;;;;;;;;0.84;100.00;98136.13;5056654;28;19931;-83
2023/01/19 03:51:59;;;;;;;;;;;;;;;0.83;100.00;98137.06;5055857;28;19920;-81
2023/01/19 03:54:25;;;;;;;;;;;;;;;0.78;100.00;98139.19;5056171;28;19927;-80
2023/01/19 03:56:51;;;;;;;;;;;;;;;0.75;100.00;98142.03;5053471;28;19928;-81
2023/01/19 03:59:16;;;;;;;;;;;;;;;0.60;100.00;98143.16;5053767;28;19925;-82
2023/01/19 04:01:42;;;;;;;;;;;;;;;0.47;100.00;98145.88;5064217;28;19920;-79
2023/01/19 04:04:08;;;;;;;;;;;;;;;0.46;100.00;98138.19;5058293;28;19921;-80
2023/01/19 04:06:35;;;;;;;;;;;;;;;0.46;100.00;98145.97;5036213;28;19921;-80
2023/01/19 04:09:01;;;;;;;;;;;;;;;0.37;100.00;98148.28;5048411;28;19921;-80
2023/01/19 04:11:27;;;;;;;;;;;;;;;0.36;100.00;98138.84;5037321;28;19928;-79
2023/01/19 04:13:52;;;;;;;;;;;;;;;0.37;100.00;98135.31;5048033;28;19935;-82
2023/01/19 04:16:19;;;;;;;;;;;;;;;0.40;100.00;98137.72;5051489;28;19980;-79
2023/01/19 04:18:45;;;;;;;;;;;;;;;0.44;100.00;98129.69;5059179;28;19964;-80
2023/01/19 04:21:11;;;;;;;;;;;;;;;0.44;100.00;98127.09;5040176;28;19921;-79
2023/01/19 04:23:36;;;;;;;;;;;;;;;0.43;100.00;98123.66;5049105;28;19921;-82
2023/01/19 04:26:06;;;;;;;;;;;;;;;0.39;100.00;98119.66;5070098;28;19905;-82
2023/01/19 04:28:32;;;;;;;;;;;;;;;0.36;100.00;98112.91;5071705;28;19981;-84
2023/01/19 04:30:57;;;;;;;;;;;;;;;0.36;100.00;98105.13;5059788;28;19928;-83
2023/01/19 04:33:23;;;;;;;;;;;;;;;0.38;100.00;98100.66;5032207;28;19921;-82
2023/01/19 04:35:49;;;;;;;;;;;;;;;0.35;100.00;98082.69;5052851;28;19956;-82
2023/01/19 04:38:15;;;;;;;;;;;;;;;0.33;100.00;98078.59;5052748;28;19921;-82
2023/01/19 04:40:41;;;;;;;;;;;;;;;0.35;100.00;98085.31;5055673;28;19944;-82
2023/01/19 04:43:06;;;;;;;;;;;;;;;0.37;100.00;98082.59;5048709;28;20015;-82
2023/01/19 04:45:32;;;;;;;;;;;;;;;0.23;100.00;98091.44;5048479;28;19966;-82
2023/01/19 04:47:57;;;;;;;;;;;;;;;0.14;100.00;98093.88;5050581;28;19917;-82
2023/01/19 04:50:23;;;;;;;;;;;;;;;0.11;100.00;98084.56;5052557;28;19921;-82
2023/01/19 04:52:49;;;;;;;;;;;;;;;0.13;100.00;98093.03;5052882;28;19925;-82
2023/01/19 04:55:15;;;;;;;;;;;;;;;0.16;100.00;98099.78;5050717;28;20055;-81
2023/01/19 04:57:40;;;;;;;;;;;;;;;0.20;100.00;98094.25;5049572;28;19921;-81
2023/01/19 05:00:06;;;;;;;;;;;;;;;0.25;100.00;98086.09;5053100;28;19927;-80
2023/01/19 05:02:32;;;;;;;;;;;;;;;0.25;100.00;98094.72;5047190;28;19971;-81
2023/01/19 05:04:58;;;;;;;;;;;;;;;0.28;100.00;98089.31;5050013;28;20380;-81
2023/01/19 05:07:23;;;;;;;;;;;;;;;0.30;100.00;98084.81;5052864;28;19929;-80
2023/01/19 05:09:49;;;;;;;;;;;;;;;0.32;100.00;98079.53;5048248;28;19921;-80
2023/01/19 05:12:14;;;;;;;;;;;;;;;0.28;100.00;98071.16;5050914;28;20016;-80
2023/01/19 05:14:40;;;;;;;;;;;;;;;0.16;100.00;98082.44;5053176;28;19920;-82
2023/01/19 05:17:05;;;;;;;;;;;;;;;0.10;100.00;98090.69;5051336;28;19921;-82
2023/01/19 05:19:30;;;;;;;;;;;;;;;0.03;100.00;98097.25;5050507;28;19963;-82
2023/01/19 05:21:56;;;;;;;;;;;;;;;0.04;100.00;98101.50;5048260;28;19925;-82
2023/01/19 05:24:21;;;;;;;;;;;;;;;0.08;100.00;98110.69;5047141;28;19972;-83
2023/01/19 05:26:47;;;;;;;;;;;;;;;0.12;100.00;98111.31;5050864;28;19948;-85
2023/01/19 05:29:12;;;;;;;;;;;;;;;0.13;100.00;98106.00;5035022;28;19921;-83
2023/01/19 05:31:38;;;;;;;;;;;;;;;0.18;100.00;98111.66;5053132;28;19928;-83
2023/01/19 05:34:03;;;;;;;;;;;;;;;0.23;100.00;98114.78;5054567;28;19927;-83
2023/01/19 05:36:29;;;;;;;;;;;;;;;0.24;100.00;98113.81;5050087;28;19928;-83
2023/01/19 05:38:54;;;;;;;;;;;;;;;0.17;100.00;98117.81;5056441;28;19964;-84
2023/01/19 05:41:20;;;;;;;;;;;;;;;0.22;100.00;98107.94;5057594;28;19925;-83
2023/01/19 05:43:45;;;;;;;;;;;;;;;0.17;100.00;98119.59;5050364;28;19924;-82
2023/01/19 05:46:11;;;;;;;;;;;;;;;0.17;100.00;98117.81;5029930;28;19932;-82
2023/01/19 05:48:37;;;;;;;;;;;;;;;0.18;100.00;98116.84;5040337;28;19920;-82
2023/01/19 05:51:03;;;;;;;;;;;;;;;0.23;100.00;98125.16;5052942;28;19970;-82
2023/01/19 05:53:29;;;;;;;;;;;;;;;0.18;100.00;98126.41;5052500;28;19921;-81
2023/01/19 05:56:02;;;;;;;;;;;;;;;0.20;100.00;98125.38;5056897;28;19948;-81
2023/01/19 05:58:27;;;;;;;;;;;;;;;0.23;100.00;98135.53;5061843;28;19929;-82
2023/01/19 06:00:53;;;;;;;;;;;;;;;0.23;100.00;98129.50;5057269;28;19921;-83
2023/01/19 06:03:18;;;;;;;;;;;;;;;0.27;100.00;98134.34;5047889;28;19925;-84
2023/01/19 06:05:44;;;;;;;;;;;;;;;0.27;100.00;98136.94;5048392;28;19996;-86
2023/01/19 06:08:09;;;;;;;;;;;;;;;0.28;100.00;98132.59;5059396;28;20373;-86
2023/01/19 06:10:35;;;;;;;;;;;;;;;0.25;100.00;98133.63;5065241;28;19932;-84
2023/01/19 06:13:00;;;;;;;;;;;;;;;0.19;100.00;98134.09;5060769;28;19921;-84
2023/01/19 06:15:26;;;;;;;;;;;;;;;0.20;100.00;98132.31;5049410;28;19929;-85
2023/01/19 06:17:51;;;;;;;;;;;;;;;0.18;100.00;98140.22;5062467;28;19925;-85
2023/01/19 06:20:17;;;;;;;;;;;;;;;0.20;100.00;98143.53;5058455;28;19920;-86
2023/01/19 06:22:42;;;;;;;;;;;;;;;0.23;100.00;98155.47;5064098;28;19927;-84
2023/01/19 06:25:08;;;;;;;;;;;;;;;0.22;100.00;98158.97;5064394;28;19927;-84
2023/01/19 06:27:34;;;;;;;;;;;;;;;0.22;100.00;98165.00;5054307;28;19928;-87
2023/01/19 06:29:59;;;;;;;;;;;;;;;0.23;100.00;98171.84;5063647;28;19989;-88
2023/01/19 06:32:24;;;;;;;;;;;;;;;0.21;100.00;98168.53;5058620;28;19921;-88
2023/01/19 06:34:50;;;;;;;;;;;;;;;0.19;100.00;98179.94;5067558;28;19920;-86
2023/01/19 06:37:15;;;;;;;;;;;;;;;0.17;100.00;98182.69;5059485;28;19925;-83
2023/01/19 06:39:41;;;;;;;;;;;;;;;0.14;100.00;98189.84;5065762;28;19939;-83
2023/01/19 06:42:07;;;;;;;;;;;;;;;0.16;100.00;98181.00;5057777;28;19920;-83
2023/01/19 06:44:32;;;;;;;;;;;;;;;0.15;100.00;98194.91;5058804;28;19920;-85
2023/01/19 06:46:58;;;;;;;;;;;;;;;0.10;100.00;98191.84;5041280;28;19921;-84
2023/01/19 06:49:23;;;;;;;;;;;;;;;0.11;100.00;98192.66;5063774;28;19972;-84
2023/01/19 06:51:49;;;;;;;;;;;;;;;-0.04;100.00;98200.59;5034010;28;19924;-84
2023/01/19 06:54:15;;;;;;;;;;;;;;;-0.10;100.00;98200.19;5053300;28;20376;-83
2023/01/19 06:56:40;;;;;;;;;;;;;;;-0.11;100.00;98198.53;5053308;28;19928;-83
2023/01/19 06:59:06;;;;;;;;;;;;;;;-0.08;100.00;98203.53;5041605;28;20017;-85
2023/01/19 07:01:31;;;;;;;;;;;;;;;-0.08;100.00;98208.72;5040008;28;20031;-83
2023/01/19 07:03:57;;;;;;;;;;;;;;;-0.06;100.00;98218.00;5050594;28;19924;-83
2023/01/19 07:06:23;;;;;;;;;;;;;;;-0.06;100.00;98217.22;5040769;28;19936;-77
2023/01/19 07:08:48;;;;;;;;;;;;;;;-0.05;100.00;98218.84;5025489;28;19925;-82
2023/01/19 07:11:14;;;;;;;;;;;;;;;-0.08;100.00;98224.25;5049428;28;19968;-81
2023/01/19 07:13:39;;;;;;;;;;;;;;;-0.09;100.00;98226.03;5048520;28;19925;-82
2023/01/19 07:16:05;;;;;;;;;;;;;;;-0.12;100.00;98230.63;5052305;28;19917;-83
2023/01/19 07:18:31;;;;;;;;;;;;;;;-0.09;100.00;98232.97;5048605;28;19925;-84
2023/01/19 07:20:57;;;;;;;;;;;;;;;-0.08;100.00;98240.66;5049880;28;19928;-82
2023/01/19 07:23:22;;;;;;;;;;;;;;;-0.11;100.00;98240.03;5049433;28;20020;-86
2023/01/19 07:25:48;;;;;;;;;;;;;;;-0.09;100.00;98243.34;5045367;28;19928;-85
2023/01/19 07:28:15;;;;;;;;;;;;;;;-0.08;100.00;98245.84;5039887;28;19921;-84
2023/01/19 07:30:44;;;;;;;;;;;;;;;-0.09;100.00;98245.94;5053574;28;19920;-85
2023/01/19 07:33:10;;;;;;;;;;;;;;;-0.10;100.00;98252.06;5046354;28;19928;-85
2023/01/19 07:35:35;;;;;;;;;;;;;;;-0.08;100.00;98255.38;5043205;28;19918;-85
2023/01/19 07:38:01;;;;;;;;;;;;;;;-0.07;100.00;98263.06;5050166;28;20089;-83
2023/01/19 07:40:27;;;;;;;;;;;;;;;-0.05;100.00;98262.94;5056003;28;19966;-85
2023/01/19 07:42:52;;;;;;;;;;;;;;;-0.07;100.00;98267.41;5045782;28;19921;-86
2023/01/19 07:45:19;;;;;;;;;;;;;;;-0.02;100.00;98270.50;5052532;28;19927;-86
2023/01/19 07:47:47;;;;;;;;;;;;;;;0.00;100.00;98281.63;5049403;28;20012;-86
2023/01/19 07:50:13;;;;;;;;;;;;;;;0.01;100.00;98285.84;5051175;28;19921;-85
2023/01/19 07:52:39;;;;;;;;;;;;;;;0.03;100.00;98283.97;5050510;28;19964;-85
2023/01/19 07:55:05;;;;;;;;;;;;;;;-0.07;100.00;98290.75;5027480;28;19917;-84
2023/01/19 07:57:30;;;;;;;;;;;;;;;-0.12;100.00;98305.81;5033251;28;20410;-85
2023/01/19 07:59:56;;;;;;;;;;;;;;;-0.17;100.00;98308.69;5049609;28;19968;-84
2023/01/19 08:02:21;;;;;;;;;;;;;;;-0.12;100.00;98305.81;5049042;28;19925;-85
2023/01/19 08:04:47;;;;;;;;;;;;;;;-0.10;100.00;98316.88;5049723;28;20015;-85
2023/01/19 08:07:13;;;;;;;;;;;;;;;-0.02;100.00;98327.56;5048806;28;19970;-85
2023/01/19 08:09:38;;;;;;;;;;;;;;;0.01;100.00;98337.72;5047594;28;19921;-85
2023/01/19 08:12:04;;;;;;;;;;;;;;;0.08;100.00;98338.13;5048672;28;19963;-85
2023/01/19 08:14:29;;;;;;;;;;;;;;;0.00;100.00;98341.25;5051920;28;19927;-85
2023/01/19 08:16:58;;;;;;;;;;;;;;;-0.04;100.00;98344.97;5046623;28;19971;-85
2023/01/19 08:19:23;;;;;;;;;;;;;;;-0.10;100.00;98345.41;5050863;28;20293;-85
2023/01/19 08:21:49;;;;;;;;;;;;;;;-0.09;100.00;98341.88;5052658;28;19921;-85
2023/01/19 08:24:20;;;;;;;;;;;;;;;-0.04;100.00;98347.56;5053328;28;19921;-84
2023/01/19 08:26:46;;;;;;;;;;;;;;;0.02;100.00;98354.94;5056679;28;20282;-84
2023/01/19 08:29:11;;;;;;;;;;;;;;;0.04;100.00;98363.44;5052616;28;19966;-85
2023/01/19 08:31:37;;;;;;;;;;;;;;;0.10;100.00;98365.63;5051607;28;19928;-85
2023/01/19 08:34:02;;;;;;;;;;;;;;;0.11;100.00;98369.88;5058509;28;19998;-84
2023/01/19 08:36:28;;;;;;;;;;;;;;;0.17;100.00;98379.00;5031150;28;19975;-85
2023/01/19 08:38:53;;;;;;;;;;;;;;;0.27;100.00;98391.22;5056256;28;20003;-84
2023/01/19 08:41:19;;;;;;;;;;;;;;;0.36;100.00;98390.56;5067535;28;19936;-85
2023/01/19 08:43:45;;;;;;;;;;;;;;;0.44;100.00;98399.56;5069322;28;19921;-84
2023/01/19 08:46:10;;;;;;;;;;;;;;;0.54;100.00;98397.97;5069376;28;19920;-85
2023/01/19 08:48:36;;;;;;;;;;;;;;;0.58;100.00;98400.28;5065940;28;19921;-85
2023/01/19 08:51:01;;;;;;;;;;;;;;;0.64;100.00;98399.00;5063730;28;19928;-85
2023/01/19 08:53:27;;;;;;;;;;;;;;;0.68;100.00;98401.28;5064216;28;19924;-85
2023/01/19 08:55:54;;;;;;;;;;;;;;;0.73;100.00;98403.53;5058637;28;19944;-85
2023/01/19 08:58:20;;;;;;;;;;;;;;;0.77;100.00;98405.78;5070422;28;19983;-84
2023/01/19 09:00:45;;;;;;;;;;;;;;;0.80;100.00;98404.75;5065756;28;19930;-84
2023/01/19 09:03:12;;;;;;;;;;;;;;;0.87;100.00;98405.16;5064246;28;19921;-84
2023/01/19 09:05:38;;;;;;;;;;;;;;;0.86;100.00;98408.69;5060792;28;19931;-83
2023/01/19 09:08:09;;;;;;;;;;;;;;;0.89;100.00;98419.66;5044762;28;19921;-85
2023/01/19 09:10:36;;;;;;;;;;;;;;;0.95;100.00;98413.19;5065670;28;19944;-84
2023/01/19 09:13:09;;;;;;;;;;;;;;;1.00;100.00;98424.91;5069985;28;21025;-85
2023/01/19 09:15:36;;;;;;;;;;;;;;;1.07;100.00;98426.13;5061995;28;19920;-84
2023/01/19 09:18:03;;;;;;;;;;;;;;;1.15;100.00;98421.22;5063667;28;19925;-85
2023/01/19 09:20:30;;;;;;;;;;;;;;;1.24;100.00;98430.09;5054703;28;19932;-86
2023/01/19 09:22:56;;;;;;;;;;;;;;;1.30;100.00;98431.47;5064410;28;19917;-83
2023/01/19 09:25:21;;;;;;;;;;;;;;;1.38;100.00;98436.91;5061740;28;20518;-85
2023/01/19 09:27:47;;;;;;;;;;;;;;;1.45;100.00;98438.13;5059056;28;19924;-83
2023/01/19 09:30:12;;;;;;;;;;;;;;;1.55;100.00;98439.09;5041221;28;19921;-85
2023/01/19 09:32:38;;;;;;;;;;;;;;;1.65;100.00;98435.69;5060228;28;19927;-85
2023/01/19 09:35:04;;;;;;;;;;;;;;;1.73;100.00;98453.31;5055376;28;19923;-85
2023/01/19 09:37:29;;;;;;;;;;;;;;;1.82;100.00;98457.84;5054268;28;19960;-84
2023/01/19 09:39:55;;;;;;;;;;;;;;;1.92;100.00;98453.63;5057298;28;20009;-85
2023/01/19 09:42:20;;;;;;;;;;;;;;;1.99;100.00;98453.97;5054162;28;19932;-85
2023/01/19 09:44:48;;;;;;;;;;;;;;;2.03;100.00;98456.22;5053715;28;19982;-85
2023/01/19 09:47:15;;;;;;;;;;;;;;;2.06;100.00;98463.78;5059366;28;19921;-83
2023/01/19 09:49:44;;;;;;;;;;;;;;;2.11;100.00;98473.03;5022704;28;20017;-83
2023/01/19 09:52:12;;;;;;;;;;;;;;;2.16;100.00;98468.31;5044831;28;20031;-84
2023/01/19 09:54:43;;;;;;;;;;;;;;;2.20;100.00;98480.97;5028124;28;20280;-83
2023/01/19 09:57:10;;;;;;;;;;;;;;;2.22;100.00;98488.69;5042108;28;20287;-80
2023/01/19 09:59:37;;;;;;;;;;;;;;;2.24;100.00;98489.41;5049285;28;19920;-80
2023/01/19 10:02:22;;;;;;;;;;;;;;;2.29;100.00;98492.47;5053685;28;19955;-81
2023/01/19 10:05:04;;;;;;;;;;;;;;;2.30;100.00;98494.09;5045814;28;19998;-81
2023/01/19 10:07:51;;;;;;;;;;;;;;;2.35;100.00;98492.00;5055716;28;20004;-80
2023/01/19 10:10:23;;;;;;;;;;;;;;;2.37;100.00;98498.75;5048184;28;19947;-80
2023/01/19 10:13:07;;;;;;;;;;;;;;;2.40;100.00;98498.53;5065304;28;19925;-81
2023/01/19 10:15:40;;;;;;;;;;;;;;;2.45;100.00;98503.38;5058093;28;19946;-80
2023/01/19 10:18:17;;;;;;;;;;;;;;;2.50;100.00;98505.59;5036945;28;19967;-81
2023/01/19 10:20:52;;;;;;;;;;;;;;;2.51;100.00;98513.31;5025547;28;20336;-81
2023/01/19 10:23:22;;;;;;;;;;;;;;;2.55;100.00;98514.72;5036419;28;20369;-80
2023/01/19 10:25:47;;;;;;;;;;;;;;;2.61;100.00;98509.03;5040908;28;20270;-81
2023/01/19 10:28:15;;;;;;;;;;;;;;;2.68;100.00;98512.84;5032899;28;19924;-80
2023/01/19 10:30:41;;;;;;;;;;;;;;;2.73;100.00;98515.91;5033142;28;20258;-81
2023/01/19 10:33:10;;;;;;;;;;;;;;;2.81;100.00;98516.16;5038241;28;19948;-81
2023/01/19 10:35:35;;;;;;;;;;;;;;;2.88;100.00;98512.13;5034910;28;19944;-80
2023/01/19 10:38:01;;;;;;;;;;;;;;;2.94;100.00;98510.00;5036222;28;19922;-82
2023/01/19 10:40:30;;;;;;;;;;;;;;;3.01;100.00;98505.94;5038189;28;19921;-82
2023/01/19 10:42:56;;;;;;;;;;;;;;;3.07;100.00;98500.22;5041901;28;19922;-81
2023/01/19 10:45:24;;;;;;;;;;;;;;;3.13;100.00;98499.75;5034151;28;19926;-80
2023/01/19 10:47:52;;;;;;;;;;;;;;;3.18;100.00;98508.84;5036326;28;19988;-79
2023/01/19 10:50:17;;;;;;;;;;;;;;;3.22;100.00;98509.47;5048726;28;19925;-79
2023/01/19 10:52:48;;;;;;;;;;;;;;;3.27;100.00;98504.72;5034560;28;19921;-80
2023/01/19 10:55:22;;;;;;;;;;;;;;;3.33;100.00;98509.44;5037418;28;20101;-80
2023/01/19 10:57:50;;;;;;;;;;;;;;;3.39;100.00;98506.34;5036350;28;20293;-79
2023/01/19 11:00:35;;;;;;;;;;;;;;;3.44;100.00;98498.97;5036768;28;19921;-78
2023/01/19 11:03:00;;;;;;;;;;;;;;;3.51;100.00;98502.75;5024093;28;19928;-78
2023/01/19 11:05:33;;;;;;;;;;;;;;;3.56;100.00;98507.56;5031062;28;19925;-79
2023/01/19 11:07:58;;;;;;;;;;;;;;;3.59;100.00;98500.31;5032609;28;19972;-80
2023/01/19 11:10:25;;;;;;;;;;;;;;;3.63;100.00;98506.97;5032442;28;19944;-80
2023/01/19 11:12:53;;;;;;;;;;;;;;;3.67;100.00;98505.75;5038086;28;20012;-77
2023/01/19 11:15:28;;;;;;;;;;;;;;;3.69;100.00;98509.06;5028997;28;19925;-79
2023/01/19 11:17:54;;;;;;;;;;;;;;;3.76;100.00;98503.34;5048436;28;19935;-79
2023/01/19 11:20:21;;;;;;;;;;;;;;;3.81;100.00;98501.19;5052990;28;19925;-78
2023/01/19 11:22:47;;;;;;;;;;;;;;;3.86;100.00;98493.81;5028162;28;19920;-78
2023/01/19 11:25:21;;;;;;;;;;;;;;;3.92;100.00;98490.69;5046070;28;19979;-74
2023/01/19 11:27:50;;;;;;;;;;;;;;;3.97;100.00;98491.13;5061043;28;20380;-77
2023/01/19 11:30:21;;;;;;;;;;;;;;;4.02;100.00;98491.56;5037343;28;20300;-77
2023/01/19 11:32:48;;;;;;;;;;;;;;;4.07;100.00;98481.56;5059557;28;19921;-79
2023/01/19 11:35:32;;;;;;;;;;;;;;;4.11;100.00;98483.00;5057616;28;19921;-79
2023/01/19 11:38:27;;;;;;;;;;;;;;;4.15;100.00;98481.78;5058710;28;19948;-79
2023/01/19 11:40:56;;;;;;;;;;;;;;;4.24;100.00;98488.03;5038655;28;19924;-78
2023/01/19 11:43:23;;;;;;;;;;;;;;;4.27;100.00;98482.53;5053531;28;19935;-77
2023/01/19 11:45:48;;;;;;;;;;;;;;;4.31;100.00;98484.75;5055831;28;19920;-78
2023/01/19 11:48:20;;;;;;;;;;;;;;;4.36;100.00;98482.56;5056749;28;19936;-78
2023/01/19 11:50:47;;;;;;;;;;;;;;;4.47;100.00;98479.91;5056001;28;19928;-77
2023/01/19 11:53:13;;;;;;;;;;;;;;;4.57;100.00;98484.31;5044828;28;19968;-77
2023/01/19 11:55:44;;;;;;;;;;;;;;;4.67;100.00;98480.78;5039983;28;19967;-80
2023/01/19 11:58:13;;;;;;;;;;;;;;;4.77;100.00;98486.06;5059274;28;20343;-78
2023/01/19 12:00:43;;;;;;;;;;;;;;;4.89;100.00;98491.03;5043332;28;20290;-80
2023/01/19 12:03:16;;;;;;;;;;;;;;;5.01;100.00;98486.53;5056101;28;19920;-79
2023/01/19 12:05:45;;;;;;;;;;;;;;;5.09;100.00;98497.16;5045979;28;19924;-80
2023/01/19 12:08:21;;;;;;;;;;;;;;;5.14;100.00;98489.72;5048129;28;20433;-79
2023/01/19 12:10:47;;;;;;;;;;;;;;;5.18;100.00;98496.38;5040212;28;20289;-81
2023/01/19 12:13:23;;;;;;;;;;;;;;;5.21;100.00;98480.41;5055905;28;19932;-80
2023/01/19 12:15:52;;;;;;;;;;;;;;;5.19;100.00;98490.16;5024549;28;20297;-80
2023/01/19 12:18:22;;;;;;;;;;;;;;;5.21;100.00;98488.25;5021564;28;19922;-79
2023/01/19 12:20:49;;;;;;;;;;;;;;;5.22;100.00;98487.28;5012232;28;20262;-79
2023/01/19 12:23:15;;;;;;;;;;;;;;;5.28;100.00;98481.50;5010657;28;20356;-81
2023/01/19 12:25:45;;;;;;;;;;;;;;;5.28;100.00;98485.91;5012721;28;19921;-80
2023/01/19 12:28:12;;;;;;;;;;;;;;;5.34;100.00;98480.97;5011803;28;20400;-80
2023/01/19 12:30:38;;;;;;;;;;;;;;;5.41;100.00;98478.63;5013445;28;20501;-81
2023/01/19 12:33:22;;;;;;;;;;;;;;;5.48;100.00;98481.53;5013755;28;21043;-80
2023/01/19 12:36:02;;;;;;;;;;;;;;;5.58;100.00;98482.38;4998703;28;19922;-79
2023/01/19 12:38:43;;;;;;;;;;;;;;;5.62;100.00;98478.50;5007963;28;20024;-81
2023/01/19 12:41:21;;;;;;;;;;;;;;;5.73;100.00;98478.34;5008547;28;19922;-81
2023/01/19 12:43:46;;;;;;;;;;;;;;;5.85;100.00;98472.00;5022210;28;19925;-75
2023/01/19 12:46:38;;;;;;;;;;;;;;;5.96;100.00;98481.53;5006131;28;19936;-76
2023/01/19 12:49:12;;;;;;;;;;;;;;;6.02;100.00;98481.81;5007807;28;20360;-76
2023/01/19 12:51:37;;;;;;;;;;;;;;;6.04;100.00;98479.06;5002782;28;19980;-76
2023/01/19 12:54:05;;;;;;;;;;;;;;;6.07;100.00;98474.34;5013062;28;20309;-75
2023/01/19 12:56:32;;;;;;;;;;;;;;;6.06;100.00;98477.97;5007870;28;19976;-75
2023/01/19 12:58:59;;;;;;;;;;;;;;;6.05;100.00;98478.91;5009443;28;19921;-75